createdAt,value
2019-04-22T00:00:37.241Z,8.50
2019-04-22T00:03:10.645Z,8.50
2019-04-22T00:05:54.979Z,8.50
2019-04-22T00:08:36.246Z,8.50
2019-04-22T00:11:02.959Z,8.50
2019-04-22T00:13:40.176Z,8.40
2019-04-22T00:16:01.831Z,8.40
2019-04-22T00:18:42.863Z,8.50
2019-04-22T00:21:04.751Z,8.50
2019-04-22T00:23:43.379Z,8.50
2019-04-22T00:26:14.831Z,8.50
2019-04-22T00:28:44.047Z,8.60
2019-04-22T00:31:20.665Z,8.60
2019-04-22T00:33:53.355Z,8.50
2019-04-22T00:36:23.778Z,8.50
2019-04-22T00:38:59.191Z,8.50
2019-04-22T00:41:29.273Z,8.50
2019-04-22T00:43:56.755Z,8.50
2019-04-22T00:46:36.131Z,8.50
2019-04-22T00:49:48.626Z,8.50
2019-04-22T00:51:28.599Z,8.50
2019-04-22T00:54:03.438Z,8.50
2019-04-22T00:56:28.311Z,8.50
2019-04-22T00:58:59.116Z,8.50
2019-04-22T01:01:31.860Z,8.50
2019-04-22T01:04:14.243Z,8.50
2019-04-22T01:06:30.738Z,8.50
2019-04-22T01:09:04.691Z,8.50
2019-04-22T01:11:33.643Z,8.40
2019-04-22T01:14:01.436Z,8.40
2019-04-22T01:16:35.641Z,8.40
2019-04-22T01:19:06.484Z,8.40
2019-04-22T01:24:02.876Z,8.30
2019-04-22T01:26:31.292Z,8.30
2019-04-22T01:29:02.519Z,8.30
2019-04-22T01:31:23.950Z,8.30
2019-04-22T01:34:07.829Z,8.30
2019-04-22T01:36:41.479Z,8.20
2019-04-22T01:39:18.273Z,8.20
2019-04-22T01:41:55.106Z,8.20
2019-04-22T01:44:24.158Z,8.10
2019-04-22T01:46:54.231Z,8.10
2019-04-22T01:49:25.706Z,8.10
2019-04-22T01:56:55.314Z,8.00
2019-04-22T01:59:15.626Z,8.00
2019-04-22T02:04:32.411Z,8.00
2019-04-22T02:06:59.805Z,7.90
2019-04-22T02:09:31.132Z,7.90
2019-04-22T02:12:00.580Z,8.00
2019-04-22T02:14:30.279Z,7.90
2019-04-22T02:17:02.619Z,7.90
2019-04-22T02:19:31.158Z,7.90
2019-04-22T02:21:56.528Z,7.90
2019-04-22T02:24:38.336Z,7.90
2019-04-22T02:27:00.347Z,7.80
2019-04-22T02:29:34.416Z,7.80
2019-04-22T02:32:17.189Z,7.80
2019-04-22T02:34:40.047Z,7.80
2019-04-22T02:42:13.303Z,7.80
2019-04-22T02:44:46.702Z,7.70
2019-04-22T02:47:18.227Z,7.70
2019-04-22T02:49:39.866Z,7.70
2019-04-22T02:52:19.939Z,7.70
2019-04-22T02:57:25.154Z,7.60
2019-04-22T02:59:46.901Z,7.60
2019-04-22T03:05:00.348Z,7.60
2019-04-22T03:07:12.800Z,7.60
2019-04-22T03:09:47.867Z,7.60
2019-04-22T03:17:22.103Z,7.60
2019-04-22T03:22:22.774Z,7.50
2019-04-22T03:25:05.463Z,7.50
2019-04-22T03:33:04.943Z,7.40
2019-04-22T03:40:26.729Z,7.30
2019-04-22T03:47:54.101Z,7.30
2019-04-22T03:50:24.345Z,7.30
2019-04-22T03:52:44.491Z,7.30
2019-04-22T03:55:15.137Z,7.30
2019-04-22T04:00:32.045Z,7.30
2019-04-22T04:02:54.513Z,7.30
2019-04-22T04:05:35.996Z,7.20
2019-04-22T04:07:52.006Z,7.20
2019-04-22T04:13:05.541Z,7.20
2019-04-22T04:18:06.902Z,7.20
2019-04-22T04:20:32.258Z,7.20
2019-04-22T04:32:57.222Z,7.10
2019-04-22T04:35:47.731Z,7.10
2019-04-22T04:37:55.748Z,7.10
2019-04-22T04:43:00.052Z,7.10
2019-04-22T04:53:12.437Z,7.10
2019-04-22T04:55:35.110Z,7.10
2019-04-22T04:58:22.105Z,7.10
2019-04-22T05:00:48.966Z,7.10
2019-04-22T05:08:12.429Z,7.10
2019-04-22T05:13:14.583Z,7.10
2019-04-22T05:16:10.755Z,7.10
2019-04-22T05:18:14.731Z,7.10
2019-04-22T05:20:55.547Z,7.10
2019-04-22T05:23:17.467Z,7.10
2019-04-22T05:25:40.336Z,7.10
2019-04-22T05:28:17.848Z,7.10
2019-04-22T05:30:43.717Z,7.10
2019-04-22T05:33:19.108Z,7.20
2019-04-22T05:35:45.877Z,7.20
2019-04-22T05:38:17.215Z,7.30
2019-04-22T05:40:45.798Z,7.30
2019-04-22T05:43:13.981Z,7.30
2019-04-22T05:45:43.115Z,7.40
2019-04-22T05:48:18.344Z,7.40
2019-04-22T05:50:54.580Z,7.50
2019-04-22T05:53:19.867Z,7.50
2019-04-22T05:58:23.880Z,7.60
2019-04-22T06:03:46.534Z,7.70
2019-04-22T06:06:15.058Z,7.80
2019-04-22T06:08:47.771Z,7.90
2019-04-22T06:11:22.782Z,7.90
2019-04-22T06:13:45.207Z,8.00
2019-04-22T06:16:18.252Z,8.00
2019-04-22T06:18:56.627Z,8.10
2019-04-22T06:21:31.210Z,8.20
2019-04-22T06:23:58.188Z,8.20
2019-04-22T06:26:31.226Z,8.30
2019-04-22T06:28:56.925Z,8.40
2019-04-22T06:31:32.756Z,8.50
2019-04-22T06:34:02.589Z,8.50
2019-04-22T06:38:59.015Z,8.70
2019-04-22T06:41:35.383Z,8.80
2019-04-22T06:44:04.813Z,8.90
2019-04-22T06:46:38.515Z,9.00
2019-04-22T06:49:03.001Z,9.00
2019-04-22T06:51:33.008Z,9.10
2019-04-22T06:54:01.737Z,9.20
2019-04-22T06:56:40.599Z,9.30
2019-04-22T06:59:06.985Z,9.40
2019-04-22T07:01:35.774Z,9.50
2019-04-22T07:04:07.336Z,9.60
2019-04-22T07:06:41.558Z,9.70
2019-04-22T07:11:37.895Z,9.90
2019-04-22T07:14:06.990Z,10.00
2019-04-22T07:16:43.557Z,10.10
2019-04-22T07:19:09.436Z,10.30
2019-04-22T07:21:37.678Z,10.40
2019-04-22T07:24:27.767Z,10.50
2019-04-22T07:27:00.502Z,10.60
2019-04-22T07:29:12.113Z,10.70
2019-04-22T07:31:43.175Z,10.80
2019-04-22T07:39:18.324Z,11.10
2019-04-22T07:41:48.985Z,11.20
2019-04-22T07:44:30.870Z,11.40
2019-04-22T07:46:51.621Z,11.50
2019-04-22T07:49:18.785Z,11.70
2019-04-22T07:51:44.561Z,11.80
2019-04-22T07:54:32.262Z,11.90
2019-04-22T07:56:51.368Z,12.00
2019-04-22T07:59:22.028Z,12.10
2019-04-22T08:01:50.157Z,12.10
2019-04-22T08:06:52.830Z,12.30
2019-04-22T08:14:20.882Z,12.40
2019-04-22T08:17:01.494Z,12.40
2019-04-22T08:21:56.282Z,12.60
2019-04-22T08:24:22.644Z,12.70
2019-04-22T08:26:53.256Z,12.80
2019-04-22T08:29:37.249Z,12.90
2019-04-22T08:31:55.452Z,13.10
2019-04-22T08:34:25.945Z,13.20
2019-04-22T08:37:24.169Z,13.30
2019-04-22T08:41:57.593Z,13.50
2019-04-22T08:44:53.501Z,13.50
2019-04-22T08:47:11.093Z,13.60
2019-04-22T08:49:34.394Z,13.60
2019-04-22T08:52:01.059Z,13.60
2019-04-22T08:54:51.263Z,13.80
2019-04-22T08:57:06.796Z,13.90
2019-04-22T08:59:27.965Z,14.00
2019-04-22T09:02:07.750Z,14.00
2019-04-22T09:04:31.332Z,14.10
2019-04-22T09:09:39.159Z,14.30
2019-04-22T09:12:08.465Z,14.40
2019-04-22T09:14:40.515Z,14.60
2019-04-22T09:17:13.317Z,14.70
2019-04-22T09:19:36.473Z,14.90
2019-04-22T09:22:13.676Z,15.00
2019-04-22T09:24:45.976Z,15.30
2019-04-22T09:27:18.050Z,15.40
2019-04-22T09:29:59.655Z,15.40
2019-04-22T09:34:56.568Z,15.50
2019-04-22T09:37:23.124Z,15.60
2019-04-22T09:39:51.678Z,15.70
2019-04-22T09:42:17.341Z,15.80
2019-04-22T09:44:47.586Z,15.90
2019-04-22T09:47:19.121Z,16.10
2019-04-22T09:50:03.669Z,16.30
2019-04-22T09:52:14.904Z,16.40
2019-04-22T09:54:57.020Z,16.50
2019-04-22T09:57:23.282Z,16.50
2019-04-22T09:59:57.998Z,16.60
2019-04-22T10:02:26.387Z,16.70
2019-04-22T10:04:55.476Z,16.90
2019-04-22T10:07:24.005Z,17.00
2019-04-22T10:10:00.044Z,17.00
2019-04-22T10:12:29.984Z,17.20
2019-04-22T10:14:54.219Z,17.20
2019-04-22T10:17:25.390Z,17.20
2019-04-22T10:19:55.071Z,17.20
2019-04-22T10:25:01.948Z,17.20
2019-04-22T10:27:26.299Z,17.20
2019-04-22T10:30:12.972Z,17.10
2019-04-22T10:32:27.063Z,17.10
2019-04-22T10:34:43.653Z,17.20
2019-04-22T10:37:11.025Z,17.20
2019-04-22T10:39:46.122Z,17.20
2019-04-22T10:42:09.100Z,17.00
2019-04-22T10:44:39.208Z,16.80
2019-04-22T10:47:09.603Z,16.90
2019-04-22T10:49:38.760Z,17.10
2019-04-22T10:52:08.732Z,17.20
2019-04-22T10:54:39.409Z,17.20
2019-04-22T10:57:08.654Z,17.20
2019-04-22T10:59:38.518Z,17.10
2019-04-22T11:02:07.583Z,17.20
2019-04-22T11:04:36.721Z,17.20
2019-04-22T11:07:10.510Z,17.20
2019-04-22T11:09:49.329Z,17.50
2019-04-22T11:12:13.660Z,17.70
2019-04-22T11:14:41.102Z,17.90
2019-04-22T11:17:08.916Z,18.00
2019-04-22T11:19:39.349Z,18.00
2019-04-22T11:22:16.832Z,18.00
2019-04-22T11:24:39.120Z,17.90
2019-04-22T11:27:08.351Z,18.00
2019-04-22T11:29:37.529Z,18.10
2019-04-22T11:32:06.649Z,18.10
2019-04-22T11:34:35.625Z,18.20
2019-04-22T11:37:05.238Z,18.20
2019-04-22T11:39:36.449Z,18.30
2019-04-22T11:42:04.753Z,18.20
2019-04-22T11:44:35.189Z,18.20
2019-04-22T11:47:05.359Z,18.00
2019-04-22T11:49:34.458Z,17.70
2019-04-22T11:52:05.500Z,17.50
2019-04-22T11:54:34.698Z,17.50
2019-04-22T11:57:05.315Z,17.50
2019-04-22T11:59:34.375Z,17.50
2019-04-22T12:02:04.634Z,17.40
2019-04-22T12:04:34.050Z,17.30
2019-04-22T12:07:04.228Z,17.20
2019-04-22T12:09:33.516Z,17.30
2019-04-22T12:12:03.501Z,17.30
2019-04-22T12:14:34.026Z,17.30
2019-04-22T12:17:03.585Z,17.30
2019-04-22T12:19:33.448Z,17.40
2019-04-22T12:22:04.922Z,17.30
2019-04-22T12:24:36.394Z,17.30
2019-04-22T12:27:06.616Z,17.50
2019-04-22T12:29:35.576Z,17.50
2019-04-22T12:32:05.314Z,17.60
2019-04-22T12:34:35.395Z,17.60
2019-04-22T12:37:04.634Z,17.60
2019-04-22T12:39:33.788Z,17.40
2019-04-22T12:42:02.773Z,17.50
2019-04-22T12:44:32.738Z,17.40
2019-04-22T12:47:03.626Z,17.50
2019-04-22T12:49:35.569Z,17.40
2019-04-22T12:52:03.306Z,17.40
2019-04-22T12:54:33.061Z,17.50
2019-04-22T12:57:02.120Z,17.50
2019-04-22T12:59:31.897Z,17.50
2019-04-22T13:02:02.931Z,17.60
2019-04-22T13:04:34.330Z,17.60
2019-04-22T13:07:03.923Z,17.80
2019-04-22T13:09:33.509Z,17.60
2019-04-22T13:12:03.355Z,17.90
2019-04-22T13:14:32.797Z,17.90
2019-04-22T13:17:02.068Z,18.00
2019-04-22T13:19:32.053Z,18.00
2019-04-22T13:22:01.048Z,17.90
2019-04-22T13:24:30.143Z,18.00
2019-04-22T13:26:59.198Z,18.10
2019-04-22T13:29:28.114Z,18.10
2019-04-22T13:31:58.416Z,18.10
2019-04-22T13:34:34.823Z,18.20
2019-04-22T13:36:58.999Z,18.30
2019-04-22T13:39:29.197Z,18.30
2019-04-22T13:42:02.255Z,18.20
2019-04-22T13:44:28.746Z,18.20
2019-04-22T13:47:14.498Z,18.20
2019-04-22T13:50:17.189Z,18.30
2019-04-22T13:54:58.477Z,18.30
2019-04-22T13:57:19.860Z,18.30
2019-04-22T13:59:40.099Z,18.30
2019-04-22T14:02:10.478Z,18.30
2019-04-22T14:04:41.200Z,18.30
2019-04-22T14:07:10.651Z,18.30
2019-04-22T14:09:40.056Z,18.20
2019-04-22T14:12:11.479Z,18.00
2019-04-22T14:14:42.765Z,18.00
2019-04-22T14:17:11.338Z,18.00
2019-04-22T14:19:40.563Z,18.00
2019-04-22T14:22:09.697Z,18.10
2019-04-22T14:24:38.880Z,17.90
2019-04-22T14:27:21.736Z,17.90
2019-04-22T14:29:41.935Z,18.00
2019-04-22T14:32:17.073Z,18.10
2019-04-22T14:34:42.715Z,18.00
2019-04-22T14:37:12.044Z,17.90
2019-04-22T14:39:41.946Z,17.90
2019-04-22T14:42:28.335Z,18.10
2019-04-22T14:45:18.956Z,18.20
2019-04-22T14:47:45.526Z,18.30
2019-04-22T14:50:05.872Z,18.40
2019-04-22T14:52:36.009Z,18.10
2019-04-22T14:54:54.302Z,17.90
2019-04-22T14:57:19.320Z,17.80
2019-04-22T14:59:50.078Z,17.80
2019-04-22T15:02:19.621Z,17.60
2019-04-22T15:04:49.986Z,17.60
2019-04-22T15:07:21.128Z,17.60
2019-04-22T15:09:50.392Z,17.60
2019-04-22T15:12:30.201Z,17.50
2019-04-22T15:14:51.135Z,17.40
2019-04-22T15:17:40.912Z,17.40
2019-04-22T15:20:11.966Z,17.30
2019-04-22T15:22:40.992Z,17.40
2019-04-22T15:25:10.523Z,17.60
2019-04-22T15:27:39.657Z,17.50
2019-04-22T15:30:09.720Z,17.40
2019-04-22T15:32:39.092Z,17.30
2019-04-22T15:35:09.207Z,17.30
2019-04-22T15:37:39.365Z,17.00
2019-04-22T15:40:09.209Z,16.80
2019-04-22T15:42:41.240Z,16.50
2019-04-22T15:45:09.636Z,16.50
2019-04-22T15:47:39.907Z,16.50
2019-04-22T15:50:10.114Z,16.60
2019-04-22T15:52:46.053Z,16.50
2019-04-22T15:55:10.988Z,16.60
2019-04-22T15:57:41.767Z,16.70
2019-04-22T16:00:25.033Z,16.70
2019-04-22T16:02:43.628Z,16.50
2019-04-22T16:05:13.068Z,16.30
2019-04-22T16:07:42.315Z,16.20
2019-04-22T16:10:12.251Z,16.00
2019-04-22T16:12:51.698Z,16.10
2019-04-22T16:15:13.308Z,16.00
2019-04-22T16:17:42.514Z,16.00
2019-04-22T16:20:13.085Z,15.90
2019-04-22T16:23:01.456Z,15.80
2019-04-22T16:25:49.492Z,15.80
2019-04-22T16:28:21.608Z,15.90
2019-04-22T16:30:51.192Z,15.80
2019-04-22T16:33:21.649Z,15.80
2019-04-22T16:35:51.089Z,15.70
2019-04-22T16:38:20.615Z,15.50
2019-04-22T16:40:50.516Z,15.30
2019-04-22T16:43:19.762Z,15.30
2019-04-22T16:45:49.633Z,15.40
2019-04-22T16:48:19.855Z,15.40
2019-04-22T16:50:50.828Z,15.30
2019-04-22T16:53:20.917Z,15.40
2019-04-22T16:55:50.812Z,15.30
2019-04-22T16:58:20.802Z,15.20
2019-04-22T17:00:49.959Z,15.30
2019-04-22T17:03:34.293Z,15.20
2019-04-22T17:06:08.021Z,15.20
2019-04-22T17:08:38.677Z,15.20
2019-04-22T17:11:09.562Z,15.00
2019-04-22T17:13:40.369Z,14.90
2019-04-22T17:16:11.839Z,14.60
2019-04-22T17:18:41.311Z,14.30
2019-04-22T17:21:12.418Z,14.10
2019-04-22T17:23:41.600Z,14.00
2019-04-22T17:26:10.674Z,13.80
2019-04-22T17:28:39.674Z,13.70
2019-04-22T17:31:08.848Z,13.50
2019-04-22T17:33:39.225Z,13.50
2019-04-22T17:36:09.373Z,13.60
2019-04-22T17:38:48.961Z,13.50
2019-04-22T17:41:23.141Z,13.30
2019-04-22T17:44:03.708Z,13.00
2019-04-22T17:46:34.464Z,12.70
2019-04-22T17:49:10.487Z,12.50
2019-04-22T17:51:53.557Z,12.30
2019-04-22T17:54:17.076Z,12.10
2019-04-22T17:56:45.229Z,12.00
2019-04-22T17:59:15.507Z,11.90
2019-04-22T18:01:44.025Z,11.70
2019-04-22T18:03:59.522Z,11.60
2019-04-22T18:06:54.796Z,11.50
2019-04-22T18:09:28.412Z,11.40
2019-04-22T18:12:00.975Z,11.30
2019-04-22T18:16:51.870Z,11.10
2019-04-22T18:19:27.730Z,11.00
2019-04-22T18:21:51.740Z,10.90
2019-04-22T18:24:17.468Z,10.80
2019-04-22T18:27:02.034Z,10.80
2019-04-22T18:29:28.113Z,10.60
2019-04-22T18:31:51.219Z,10.50
2019-04-22T18:34:26.222Z,10.40
2019-04-22T18:37:04.014Z,10.30
2019-04-22T18:39:42.422Z,10.30
2019-04-22T18:42:03.388Z,10.20
2019-04-22T18:44:44.544Z,10.20
2019-04-22T18:47:09.879Z,10.10
2019-04-22T18:49:42.792Z,10.00
2019-04-22T18:52:24.646Z,9.90
2019-04-22T18:55:03.906Z,9.90
2019-04-22T18:57:45.117Z,9.80
2019-04-22T19:00:09.119Z,9.80
2019-04-22T19:02:49.480Z,9.70
2019-04-22T19:05:22.089Z,9.60
2019-04-22T19:08:13.699Z,9.50
2019-04-22T19:10:43.095Z,9.50
2019-04-22T19:13:39.963Z,9.40
2019-04-22T19:15:48.860Z,9.30
2019-04-22T19:18:22.427Z,9.30
2019-04-22T19:20:49.538Z,9.20
2019-04-22T19:23:12.886Z,9.10
2019-04-22T19:25:42.114Z,9.10
2019-04-22T19:28:27.151Z,9.00
2019-04-22T19:31:01.499Z,8.90
2019-04-22T19:33:27.291Z,8.90
2019-04-22T19:35:56.294Z,8.90
2019-04-22T19:38:15.646Z,8.80
2019-04-22T19:41:08.336Z,8.70
2019-04-22T19:43:30.915Z,8.70
2019-04-22T19:45:58.949Z,8.60
2019-04-22T19:48:39.029Z,8.60
2019-04-22T19:51:12.847Z,8.50
2019-04-22T19:53:42.226Z,8.50
2019-04-22T19:56:10.111Z,8.40
2019-04-22T19:58:44.399Z,8.40
2019-04-22T20:01:37.008Z,8.30
2019-04-22T20:04:15.040Z,8.30
2019-04-22T20:06:47.773Z,8.30
2019-04-22T20:09:25.048Z,8.30
2019-04-22T20:11:51.821Z,8.20
2019-04-22T20:14:21.708Z,8.20
2019-04-22T20:16:49.019Z,8.20
2019-04-22T20:19:31.924Z,8.20
2019-04-22T20:21:56.592Z,8.20
2019-04-22T20:24:15.871Z,8.10
2019-04-22T20:27:04.189Z,8.10
2019-04-22T20:29:37.674Z,8.10
2019-04-22T20:32:05.360Z,8.10
2019-04-22T20:34:51.074Z,8.00
2019-04-22T20:37:29.466Z,8.00
2019-04-22T20:39:44.339Z,8.00
2019-04-22T20:42:23.562Z,8.00
2019-04-22T20:44:46.037Z,8.00
2019-04-22T20:47:13.589Z,7.90
2019-04-22T20:49:47.200Z,7.90
2019-04-22T20:52:26.629Z,7.90
2019-04-22T20:54:52.960Z,7.80
2019-04-22T20:57:25.471Z,7.80
2019-04-22T20:59:49.321Z,7.80
2019-04-22T21:02:18.180Z,7.80
2019-04-22T21:04:43.141Z,7.80
2019-04-22T21:07:19.549Z,7.80
2019-04-22T21:09:54.133Z,7.80
2019-04-22T21:12:21.051Z,7.70
2019-04-22T21:15:03.466Z,7.70
2019-04-22T21:17:30.772Z,7.70
2019-04-22T21:20:08.306Z,7.60
2019-04-22T21:22:33.811Z,7.60
2019-04-22T21:25:02.323Z,7.50
2019-04-22T21:27:42.370Z,7.40
2019-04-22T21:30:01.893Z,7.40
2019-04-22T21:32:39.214Z,7.40
2019-04-22T21:35:21.487Z,7.50
2019-04-22T21:37:43.219Z,7.50
2019-04-22T21:40:16.429Z,7.50
2019-04-22T21:42:48.562Z,7.50
2019-04-22T21:45:14.934Z,7.40
2019-04-22T21:47:57.628Z,7.40
2019-04-22T21:50:36.302Z,7.40
2019-04-22T21:52:56.908Z,7.30
2019-04-22T21:55:24.410Z,7.30
2019-04-22T21:58:02.901Z,7.30
2019-04-22T22:00:36.016Z,7.40
2019-04-22T22:03:00.584Z,7.40
2019-04-22T22:05:26.527Z,7.40
2019-04-22T22:07:49.410Z,7.50
2019-04-22T22:10:34.459Z,7.50
2019-04-22T22:13:06.311Z,7.40
2019-04-22T22:15:30.418Z,7.40
2019-04-22T22:18:02.092Z,7.30
2019-04-22T22:20:43.566Z,7.30
2019-04-22T22:23:16.088Z,7.20
2019-04-22T22:25:40.008Z,7.20
2019-04-22T22:28:22.058Z,7.20
2019-04-22T22:33:10.702Z,7.20
2019-04-22T22:35:40.491Z,7.10
2019-04-22T22:38:13.565Z,7.00
2019-04-22T22:40:28.562Z,7.10
2019-04-22T22:42:58.992Z,7.10
2019-04-22T22:45:37.158Z,7.20
2019-04-22T22:48:21.688Z,7.10
2019-04-22T22:50:47.655Z,7.20
2019-04-22T22:53:29.166Z,7.20
2019-04-22T22:55:52.096Z,7.30
2019-04-22T22:58:24.465Z,7.30
2019-04-22T23:00:50.915Z,7.30
2019-04-22T23:03:40.606Z,7.30
2019-04-22T23:05:57.182Z,7.20
2019-04-22T23:08:26.593Z,7.20
2019-04-22T23:11:00.445Z,7.20
2019-04-22T23:13:31.568Z,7.10
2019-04-22T23:15:50.759Z,7.10
2019-04-22T23:18:07.939Z,7.00
2019-04-22T23:20:42.067Z,6.90
2019-04-22T23:23:25.745Z,6.90
2019-04-22T23:26:02.675Z,6.80
2019-04-22T23:28:43.044Z,6.80
2019-04-22T23:31:21.164Z,6.80
2019-04-22T23:34:02.902Z,6.70
2019-04-22T23:36:36.959Z,6.70
2019-04-22T23:39:20.294Z,6.60
2019-04-22T23:41:45.775Z,6.60
2019-04-22T23:44:21.011Z,6.60
2019-04-22T23:46:56.571Z,6.50
2019-04-22T23:49:25.022Z,6.40
2019-04-22T23:52:21.132Z,6.40
2019-04-22T23:54:40.869Z,6.40
2019-04-22T23:57:01.633Z,6.30
